Time;durP1;ratioP1;P1;durP2;ratioP2;P2;SDS_P1;SDS_P2;PMS_P1;PMS_P2;Temp;Humidity;BMP_temperature;BMP_pressure;BME280_temperature;BME280_humidity;BME280_pressure;Samples;Min_cycle;Max_cycle;Signal;HPM_P1;HPM_P2
2023/12/02 00:01:51;;;;;;;23.05;10.65;;;-1.90;99.90;;;;;;4960064;28;20035;-71
2023/12/02 00:04:17;;;;;;;24.98;11.38;;;-1.90;99.90;;;;;;4938737;28;20039;-71
2023/12/02 00:06:42;;;;;;;23.48;11.25;;;-2.00;99.90;;;;;;4960530;28;20130;-71
2023/12/02 00:09:08;;;;;;;28.10;11.75;;;-2.00;99.90;;;;;;4960238;28;20043;-71
2023/12/02 00:11:34;;;;;;;24.10;11.80;;;-2.00;99.90;;;;;;4961100;28;20047;-71
2023/12/02 00:14:00;;;;;;;27.83;11.85;;;-2.00;99.90;;;;;;4959420;28;20117;-71
2023/12/02 00:16:25;;;;;;;26.40;11.70;;;-2.00;99.90;;;;;;4961172;28;20043;-71
2023/12/02 00:18:51;;;;;;;19.17;10.20;;;-2.00;99.90;;;;;;4988437;28;20038;-71
2023/12/02 00:21:17;;;;;;;26.75;12.07;;;-2.00;99.90;;;;;;4933897;28;20043;-71
2023/12/02 00:23:42;;;;;;;25.60;11.43;;;-2.10;99.90;;;;;;4952786;28;20054;-71
2023/12/02 00:26:08;;;;;;;24.77;10.93;;;-2.10;99.90;;;;;;4942838;28;20122;-71
2023/12/02 00:28:34;;;;;;;22.77;10.82;;;-2.10;99.90;;;;;;4942748;28;20040;-71
2023/12/02 00:31:00;;;;;;;27.80;11.40;;;-2.20;99.90;;;;;;4963233;28;20035;-71
2023/12/02 00:33:25;;;;;;;27.33;11.70;;;-2.20;99.90;;;;;;4954921;28;20042;-71
2023/12/02 00:35:51;;;;;;;21.92;10.60;;;-2.20;99.90;;;;;;4939271;28;20039;-71
2023/12/02 00:38:16;;;;;;;27.90;12.30;;;-2.30;99.90;;;;;;4934096;28;20047;-71
2023/12/02 00:40:42;;;;;;;25.38;11.25;;;-2.30;99.90;;;;;;4942590;28;20054;-71
2023/12/02 00:43:08;;;;;;;27.30;10.73;;;-2.30;99.90;;;;;;4942180;28;20389;-71
2023/12/02 00:45:33;;;;;;;24.10;10.75;;;-2.40;99.90;;;;;;4951520;28;20046;-71
2023/12/02 00:47:59;;;;;;;26.00;11.90;;;-2.40;99.90;;;;;;4951486;28;20053;-71
2023/12/02 00:50:25;;;;;;;25.27;11.48;;;-2.40;99.90;;;;;;4935731;28;20572;-71
2023/12/02 00:52:51;;;;;;;28.17;11.82;;;-2.50;99.90;;;;;;4966326;28;20053;-71
2023/12/02 00:55:16;;;;;;;22.27;10.93;;;-2.50;99.90;;;;;;4960142;28;20073;-71
2023/12/02 00:57:42;;;;;;;23.08;9.70;;;-2.50;99.90;;;;;;4958654;28;20038;-71
2023/12/02 01:00:08;;;;;;;23.92;10.50;;;-2.60;99.90;;;;;;4960116;28;20082;-71
2023/12/02 01:02:34;;;;;;;22.98;10.45;;;-2.60;99.90;;;;;;4945596;28;20031;-71
2023/12/02 01:05:00;;;;;;;26.55;12.23;;;-2.60;99.90;;;;;;4957822;28;20046;-71
2023/12/02 01:07:26;;;;;;;24.10;11.70;;;-2.60;99.90;;;;;;4944889;28;20050;-71
2023/12/02 01:09:51;;;;;;;29.63;12.35;;;-2.60;99.90;;;;;;4954046;28;20035;-71
2023/12/02 01:12:17;;;;;;;29.00;11.65;;;-2.70;99.90;;;;;;4943445;28;20045;-71
2023/12/02 01:14:42;;;;;;;23.25;10.35;;;-2.70;99.90;;;;;;4955710;28;20077;-71
2023/12/02 01:17:09;;;;;;;24.88;11.27;;;-2.70;99.90;;;;;;4951970;28;20046;-71
2023/12/02 01:19:34;;;;;;;31.85;12.48;;;-2.80;99.90;;;;;;4932279;28;20043;-71
2023/12/02 01:22:00;;;;;;;22.75;11.73;;;-2.80;99.90;;;;;;4944338;28;20091;-71
2023/12/02 01:24:26;;;;;;;24.27;10.25;;;-2.80;99.90;;;;;;4927877;28;20043;-71
2023/12/02 01:26:51;;;;;;;27.92;11.20;;;-2.80;99.90;;;;;;4955463;28;20034;-71
2023/12/02 01:29:17;;;;;;;22.30;9.63;;;-2.80;99.90;;;;;;4938033;28;20053;-71
2023/12/02 01:31:43;;;;;;;24.30;11.38;;;-2.80;99.90;;;;;;4954647;28;20041;-70
2023/12/02 01:34:09;;;;;;;22.65;10.45;;;-2.80;99.90;;;;;;4951270;28;20448;-71
2023/12/02 01:36:34;;;;;;;26.30;10.73;;;-2.80;99.90;;;;;;4964864;28;20070;-71
2023/12/02 01:39:00;;;;;;;23.63;10.68;;;-2.80;99.90;;;;;;4957841;28;20049;-71
2023/12/02 01:41:26;;;;;;;29.48;11.05;;;-2.80;99.90;;;;;;4953262;28;20105;-71
2023/12/02 01:43:52;;;;;;;21.58;10.35;;;-2.80;99.90;;;;;;4962062;28;20102;-71
2023/12/02 01:46:18;;;;;;;30.38;11.73;;;-2.80;99.90;;;;;;4939877;28;20620;-71
2023/12/02 01:48:44;;;;;;;26.13;11.15;;;-2.80;99.90;;;;;;4955490;28;20118;-71
2023/12/02 01:51:10;;;;;;;24.75;10.75;;;-2.80;99.90;;;;;;4952704;28;20397;-71
2023/12/02 01:53:38;;;;;;;25.92;10.23;;;-2.80;99.90;;;;;;4947484;28;20516;-71
2023/12/02 01:56:04;;;;;;;31.20;12.38;;;-2.80;99.90;;;;;;4941539;28;20101;-71
2023/12/02 01:58:30;;;;;;;24.48;11.85;;;-2.80;99.90;;;;;;4946227;28;20112;-71
2023/12/02 02:00:55;;;;;;;23.70;11.85;;;-2.80;99.90;;;;;;4953039;28;20125;-71
2023/12/02 02:03:21;;;;;;;19.83;9.48;;;-2.70;99.90;;;;;;4968763;28;20129;-71
2023/12/02 02:05:47;;;;;;;30.88;11.10;;;-2.70;99.90;;;;;;4943538;28;20039;-71
2023/12/02 02:08:12;;;;;;;25.67;11.65;;;-2.70;99.90;;;;;;4947477;28;20517;-71
2023/12/02 02:10:38;;;;;;;20.15;10.80;;;-2.70;99.90;;;;;;4965337;28;20090;-71
2023/12/02 02:13:04;;;;;;;28.73;10.50;;;-2.70;99.90;;;;;;4947545;28;20039;-71
2023/12/02 02:15:30;;;;;;;25.48;10.00;;;-2.70;99.90;;;;;;4963681;28;20505;-71
2023/12/02 02:17:55;;;;;;;22.33;10.43;;;-2.70;99.90;;;;;;4945794;28;20602;-71
2023/12/02 02:20:21;;;;;;;19.88;8.73;;;-2.70;99.90;;;;;;4964860;28;20123;-71
2023/12/02 02:22:47;;;;;;;25.42;9.95;;;-2.70;99.90;;;;;;4959271;28;20070;-71
2023/12/02 02:25:12;;;;;;;27.02;10.70;;;-2.70;99.90;;;;;;4962374;28;20094;-71
2023/12/02 02:27:38;;;;;;;28.98;11.35;;;-2.70;99.90;;;;;;4945184;28;20473;-71
2023/12/02 02:30:05;;;;;;;25.45;10.50;;;-2.70;99.90;;;;;;4966832;28;20039;-71
2023/12/02 02:32:30;;;;;;;23.40;10.18;;;-2.70;99.90;;;;;;4960472;28;21127;-71
2023/12/02 02:34:56;;;;;;;19.50;9.90;;;-2.70;99.90;;;;;;4970824;28;20031;-71
2023/12/02 02:37:22;;;;;;;25.27;10.82;;;-2.70;99.90;;;;;;4943438;28;20489;-70
2023/12/02 02:39:48;;;;;;;23.40;11.82;;;-2.70;99.90;;;;;;4950526;28;20101;-71
2023/12/02 02:42:13;;;;;;;29.23;10.98;;;-2.70;99.90;;;;;;4953305;28;20081;-71
2023/12/02 02:44:40;;;;;;;28.45;11.07;;;-2.70;99.90;;;;;;4962274;28;20087;-71
2023/12/02 02:47:06;;;;;;;26.50;11.23;;;-2.70;99.90;;;;;;4966376;28;20052;-71
2023/12/02 02:49:32;;;;;;;31.02;11.32;;;-2.70;99.90;;;;;;4951194;28;20058;-71
2023/12/02 02:51:57;;;;;;;27.75;11.50;;;-2.70;99.90;;;;;;4962528;28;20035;-71
2023/12/02 02:54:23;;;;;;;23.77;11.00;;;-2.70;99.90;;;;;;4950322;28;20138;-71
2023/12/02 02:56:50;;;;;;;18.20;9.48;;;-2.70;99.90;;;;;;4934946;28;20050;-71
2023/12/02 02:59:16;;;;;;;27.27;12.05;;;-2.70;99.90;;;;;;4949793;28;20039;-71
2023/12/02 03:01:45;;;;;;;24.42;11.45;;;-2.70;99.90;;;;;;4960179;28;20043;-71
2023/12/02 03:04:10;;;;;;;23.67;10.25;;;-2.70;99.90;;;;;;4957154;28;20039;-71
2023/12/02 03:06:36;;;;;;;25.55;10.10;;;-2.70;99.90;;;;;;4958895;28;20105;-71
2023/12/02 03:09:03;;;;;;;26.67;11.23;;;-2.70;99.90;;;;;;4956748;28;20043;-71
2023/12/02 03:11:28;;;;;;;26.88;10.55;;;-2.70;99.90;;;;;;4959293;28;20511;-71
2023/12/02 03:13:54;;;;;;;32.80;11.82;;;-2.70;99.90;;;;;;4940168;28;20039;-71
2023/12/02 03:16:20;;;;;;;25.83;11.45;;;-2.70;99.90;;;;;;4957290;28;20119;-70
2023/12/02 03:18:46;;;;;;;23.13;11.93;;;-2.70;99.90;;;;;;4943710;28;20039;-71
2023/12/02 03:21:11;;;;;;;29.45;12.63;;;-2.70;99.90;;;;;;4958564;28;20126;-71
2023/12/02 03:23:37;;;;;;;25.63;10.40;;;-2.70;99.90;;;;;;4958561;28;20034;-71
2023/12/02 03:26:03;;;;;;;28.05;12.93;;;-2.70;99.90;;;;;;4948568;28;20042;-71
2023/12/02 03:28:29;;;;;;;27.02;10.95;;;-2.70;99.90;;;;;;4935070;28;20043;-71
2023/12/02 03:30:56;;;;;;;29.17;12.23;;;-2.50;99.90;;;;;;4950536;28;20035;-71
2023/12/02 03:33:21;;;;;;;23.63;10.57;;;-2.70;99.90;;;;;;4960194;28;20043;-70
2023/12/02 03:35:47;;;;;;;28.23;11.40;;;-2.70;99.90;;;;;;4942465;28;20046;-71
2023/12/02 03:38:13;;;;;;;30.00;11.70;;;-2.70;99.90;;;;;;4944741;28;20047;-71
2023/12/02 03:40:38;;;;;;;18.95;10.68;;;-2.70;99.90;;;;;;4948830;28;20075;-71
2023/12/02 03:43:04;;;;;;;31.33;12.68;;;-2.70;99.90;;;;;;4955623;28;20047;-71
2023/12/02 03:45:30;;;;;;;24.83;11.13;;;-2.70;99.90;;;;;;4943670;28;20039;-71
2023/12/02 03:47:56;;;;;;;24.08;11.02;;;-2.70;99.90;;;;;;4952953;28;20043;-71
2023/12/02 03:50:21;;;;;;;27.40;11.25;;;-2.60;99.90;;;;;;4957415;28;20517;-71
2023/12/02 03:52:47;;;;;;;27.60;12.18;;;-2.60;99.90;;;;;;4936572;28;20123;-71
2023/12/02 03:55:13;;;;;;;29.55;11.57;;;-2.70;99.90;;;;;;4940723;28;20063;-71
2023/12/02 03:57:39;;;;;;;29.95;13.25;;;-2.60;99.90;;;;;;4957018;28;20046;-71
2023/12/02 04:00:10;;;;;;;26.52;12.32;;;-2.60;99.90;;;;;;4960131;28;20039;-71
2023/12/02 04:02:40;;;;;;;26.70;11.38;;;-2.60;99.90;;;;;;4950328;28;20583;-71
2023/12/02 04:05:10;;;;;;;34.35;13.63;;;-2.60;99.90;;;;;;4956850;28;20400;-71
2023/12/02 04:07:39;;;;;;;31.77;12.20;;;-2.60;99.90;;;;;;4958103;28;20039;-71
2023/12/02 04:10:06;;;;;;;30.08;12.00;;;-2.60;99.90;;;;;;4984393;28;20117;-70
2023/12/02 04:12:33;;;;;;;31.20;13.13;;;-2.60;99.90;;;;;;4959326;28;20042;-71
2023/12/02 04:14:59;;;;;;;29.10;13.68;;;-2.60;99.90;;;;;;4967107;28;20035;-71
2023/12/02 04:17:25;;;;;;;26.98;11.55;;;-2.60;99.90;;;;;;4956520;28;20081;-71
2023/12/02 04:19:50;;;;;;;33.88;13.30;;;-2.60;99.90;;;;;;4928454;28;20605;-71
2023/12/02 04:22:16;;;;;;;33.90;13.32;;;-2.60;99.90;;;;;;4949166;28;20050;-71
2023/12/02 04:24:42;;;;;;;23.65;11.50;;;-2.60;99.90;;;;;;4940497;28;20128;-70
2023/12/02 04:27:08;;;;;;;23.85;10.98;;;-2.60;99.90;;;;;;4956931;28;20035;-70
2023/12/02 04:29:40;;;;;;;37.78;14.23;;;-2.60;99.90;;;;;;4940399;28;20082;-71
2023/12/02 04:32:06;;;;;;;31.00;13.18;;;-2.60;99.90;;;;;;4955387;28;20041;-70
2023/12/02 04:34:33;;;;;;;30.13;12.90;;;-2.60;99.90;;;;;;4963261;28;20063;-70
2023/12/02 04:36:59;;;;;;;28.27;12.25;;;-2.60;99.90;;;;;;4943696;28;20042;-70
2023/12/02 04:39:25;;;;;;;25.58;12.15;;;-2.50;99.90;;;;;;4965766;28;20043;-70
2023/12/02 04:41:51;;;;;;;34.15;13.25;;;-2.50;99.90;;;;;;4942745;28;20121;-70
2023/12/02 04:44:17;;;;;;;28.38;12.85;;;-2.60;99.90;;;;;;4961601;28;20078;-70
2023/12/02 04:46:43;;;;;;;31.90;15.05;;;-2.50;99.90;;;;;;4958648;28;20420;-70
2023/12/02 04:49:09;;;;;;;28.38;12.18;;;-2.50;99.90;;;;;;4943484;28;20128;-70
2023/12/02 04:51:34;;;;;;;28.42;13.93;;;-2.50;99.90;;;;;;4962631;28;20073;-70
2023/12/02 04:54:00;;;;;;;29.27;12.30;;;-2.50;99.90;;;;;;4964265;28;20050;-70
2023/12/02 04:56:26;;;;;;;40.33;13.48;;;-2.50;99.90;;;;;;4948050;28;20062;-70
2023/12/02 04:58:51;;;;;;;36.50;14.25;;;-2.50;99.90;;;;;;4955626;28;20061;-71
2023/12/02 05:01:17;;;;;;;35.05;13.55;;;-2.50;99.90;;;;;;4961302;28;20066;-71
2023/12/02 05:03:43;;;;;;;28.17;13.18;;;-2.00;99.90;;;;;;4942139;28;20043;-71
2023/12/02 05:06:17;;;;;;;31.25;12.68;;;-2.50;99.90;;;;;;4932273;28;20046;-71
2023/12/02 05:08:44;;;;;;;20.55;9.75;;;-2.50;99.90;;;;;;4945654;28;20043;-72
2023/12/02 05:11:17;;;;;;;30.35;12.43;;;-2.50;99.90;;;;;;4941975;28;20113;-71
2023/12/02 05:13:43;;;;;;;30.73;12.95;;;-2.40;99.90;;;;;;4948330;28;20053;-71
2023/12/02 05:16:09;;;;;;;34.25;14.13;;;-2.40;99.90;;;;;;4947576;28;20046;-71
2023/12/02 05:18:34;;;;;;;35.10;14.32;;;-2.40;99.90;;;;;;4936426;28;20043;-71
2023/12/02 05:21:00;;;;;;;28.13;12.40;;;-2.40;99.90;;;;;;4932254;28;20046;-71
2023/12/02 05:23:26;;;;;;;28.17;12.20;;;-2.40;99.90;;;;;;4959137;28;20042;-71
2023/12/02 05:25:51;;;;;;;32.58;13.75;;;-2.40;99.90;;;;;;4942726;28;20511;-71
2023/12/02 05:28:18;;;;;;;30.77;12.43;;;-2.40;99.90;;;;;;4942963;28;20031;-71
2023/12/02 05:30:45;;;;;;;36.53;13.55;;;-2.30;99.90;;;;;;4948831;28;20497;-71
2023/12/02 05:33:12;;;;;;;29.73;12.90;;;-2.40;99.90;;;;;;4937891;28;20039;-71
2023/12/02 05:35:37;;;;;;;30.92;12.98;;;-2.30;99.90;;;;;;4954905;28;20126;-70
2023/12/02 05:38:03;;;;;;;29.23;13.95;;;-2.30;99.90;;;;;;4971190;28;20043;-71
2023/12/02 05:40:29;;;;;;;29.30;11.63;;;-2.30;99.90;;;;;;4958870;28;20062;-70
2023/12/02 05:42:54;;;;;;;24.40;12.07;;;-2.30;99.90;;;;;;4950532;28;20034;-70
2023/12/02 05:45:20;;;;;;;29.67;12.60;;;-2.30;99.90;;;;;;4967937;28;20031;-71
2023/12/02 05:47:46;;;;;;;28.67;12.48;;;-2.30;99.90;;;;;;4944948;28;20051;-70
2023/12/02 05:50:11;;;;;;;21.48;9.35;;;-2.10;99.90;;;;;;4939730;28;20600;-70
2023/12/02 05:52:37;;;;;;;30.48;13.15;;;-2.30;99.90;;;;;;4946260;28;20034;-71
2023/12/02 05:55:03;;;;;;;29.33;13.63;;;-2.30;99.90;;;;;;4954697;28;20072;-71
2023/12/02 05:57:28;;;;;;;29.40;13.15;;;-2.30;99.90;;;;;;4938702;28;20051;-70
2023/12/02 05:59:54;;;;;;;33.30;11.98;;;-2.30;99.90;;;;;;4947706;28;20511;-70
2023/12/02 06:02:20;;;;;;;31.33;12.95;;;-2.20;99.90;;;;;;4942722;28;20476;-71
2023/12/02 06:04:45;;;;;;;26.42;11.25;;;-2.20;99.90;;;;;;4951417;28;20050;-71
2023/12/02 06:07:11;;;;;;;31.25;11.65;;;-2.30;99.90;;;;;;4960801;28;20490;-71
2023/12/02 06:09:40;;;;;;;28.98;12.45;;;-2.20;99.90;;;;;;4951445;28;20035;-70
2023/12/02 06:12:06;;;;;;;34.42;14.80;;;-2.20;99.90;;;;;;4963334;28;20047;-70
2023/12/02 06:14:32;;;;;;;32.97;13.18;;;-2.20;99.90;;;;;;4951630;28;20039;-70
2023/12/02 06:16:58;;;;;;;27.85;12.98;;;-2.20;99.90;;;;;;4947223;28;20211;-70
2023/12/02 06:19:23;;;;;;;31.02;14.27;;;-2.20;99.90;;;;;;4937485;28;20653;-70
2023/12/02 06:21:49;;;;;;;33.53;14.55;;;-2.20;99.90;;;;;;4945540;28;20378;-70
2023/12/02 06:24:15;;;;;;;36.08;15.02;;;-2.20;99.90;;;;;;4959251;28;20520;-70
2023/12/02 06:26:40;;;;;;;42.38;14.40;;;-2.20;99.90;;;;;;4945798;28;20043;-70
2023/12/02 06:29:06;;;;;;;37.55;15.63;;;-2.20;99.90;;;;;;4948225;28;20035;-70
2023/12/02 06:31:33;;;;;;;32.25;13.13;;;-2.20;99.90;;;;;;4938756;28;20043;-71
2023/12/02 06:33:58;;;;;;;26.38;12.20;;;-2.10;99.90;;;;;;4946130;28;20039;-71
2023/12/02 06:36:24;;;;;;;35.45;14.05;;;-2.10;99.90;;;;;;4940750;28;20054;-71
2023/12/02 06:38:50;;;;;;;27.98;11.80;;;-2.10;99.90;;;;;;4956989;28;20076;-70
2023/12/02 06:41:16;;;;;;;27.35;11.30;;;-2.10;99.90;;;;;;4946307;28;20037;-71
2023/12/02 06:43:41;;;;;;;34.65;14.80;;;-2.10;99.90;;;;;;4943399;28;20473;-70
2023/12/02 06:46:08;;;;;;;31.90;13.32;;;-2.10;99.90;;;;;;4960880;28;20117;-70
2023/12/02 06:48:34;;;;;;;39.40;12.65;;;-2.10;99.90;;;;;;4956528;28;20559;-70
2023/12/02 06:51:00;;;;;;;22.67;12.30;;;-2.10;99.90;;;;;;4947327;28;20118;-71
2023/12/02 06:53:26;;;;;;;35.80;14.60;;;-1.90;99.90;;;;;;4959128;28;20078;-70
2023/12/02 06:55:52;;;;;;;36.90;13.93;;;-2.10;99.90;;;;;;4954192;28;20121;-70
2023/12/02 06:58:17;;;;;;;29.30;12.00;;;-2.10;99.90;;;;;;4958407;28;20046;-70
2023/12/02 07:00:43;;;;;;;30.27;14.30;;;-2.10;99.90;;;;;;4960073;28;20148;-70
2023/12/02 07:03:09;;;;;;;30.63;12.38;;;-2.10;99.90;;;;;;4946025;28;20151;-70
2023/12/02 07:05:35;;;;;;;32.05;13.93;;;-2.10;99.90;;;;;;4949698;28;20056;-70
2023/12/02 07:08:01;;;;;;;28.55;12.25;;;-2.10;99.90;;;;;;4949537;28;20113;-70
2023/12/02 07:10:26;;;;;;;31.60;13.55;;;-2.10;99.90;;;;;;4953308;28;20177;-70
2023/12/02 07:12:52;;;;;;;39.63;13.95;;;-2.10;99.90;;;;;;4954721;28;20035;-70
2023/12/02 07:15:18;;;;;;;25.50;11.77;;;-2.10;99.90;;;;;;4959135;28;20043;-70
2023/12/02 07:17:43;;;;;;;34.00;14.57;;;-2.10;99.90;;;;;;4944170;28;20050;-70
2023/12/02 07:20:10;;;;;;;33.28;12.57;;;-2.10;99.90;;;;;;4957726;28;20094;-70
2023/12/02 07:22:36;;;;;;;27.50;13.27;;;-2.10;99.90;;;;;;4957014;28;20578;-70
2023/12/02 07:25:02;;;;;;;30.95;13.00;;;-2.00;99.90;;;;;;4948800;28;20442;-70
2023/12/02 07:27:27;;;;;;;27.10;11.63;;;-2.00;99.90;;;;;;4951169;28;20126;-70
2023/12/02 07:29:53;;;;;;;30.38;13.60;;;-2.10;99.90;;;;;;4943966;28;20074;-70
2023/12/02 07:32:19;;;;;;;33.72;12.20;;;-2.00;99.90;;;;;;4942448;28;20038;-71
2023/12/02 07:34:44;;;;;;;25.85;11.30;;;-2.00;99.90;;;;;;4959898;28;20102;-71
2023/12/02 07:37:10;;;;;;;23.27;9.57;;;-2.00;99.90;;;;;;4962733;28;20626;-70
2023/12/02 07:39:36;;;;;;;23.45;10.85;;;-2.00;99.90;;;;;;4963029;28;20038;-71
2023/12/02 07:42:01;;;;;;;26.45;11.27;;;-2.00;99.90;;;;;;4956611;28;20079;-70
2023/12/02 07:44:27;;;;;;;28.13;11.55;;;-2.00;99.90;;;;;;4951156;28;20043;-70
2023/12/02 07:46:53;;;;;;;34.55;12.70;;;-2.00;99.90;;;;;;4949451;28;20047;-71
2023/12/02 07:49:18;;;;;;;32.72;14.73;;;-2.00;99.90;;;;;;4947881;28;20460;-71
2023/12/02 07:51:44;;;;;;;28.33;11.45;;;-2.00;99.90;;;;;;4960861;28;20504;-71
2023/12/02 07:54:10;;;;;;;29.60;11.07;;;-2.10;99.90;;;;;;4963010;28;20035;-70
2023/12/02 07:56:36;;;;;;;40.03;12.88;;;-2.00;99.90;;;;;;4955149;28;20144;-70
2023/12/02 07:59:02;;;;;;;25.15;12.27;;;-2.00;99.90;;;;;;4962457;28;20480;-70
2023/12/02 08:01:28;;;;;;;34.58;14.43;;;-2.00;99.90;;;;;;4955200;28;20034;-70
2023/12/02 08:03:53;;;;;;;33.13;13.75;;;-2.00;99.90;;;;;;4967970;28;20497;-70
2023/12/02 08:06:19;;;;;;;30.48;13.45;;;-2.00;99.90;;;;;;4944044;28;20497;-70
2023/12/02 08:08:45;;;;;;;31.65;12.23;;;-2.00;99.90;;;;;;4958807;28;20039;-70
2023/12/02 08:11:11;;;;;;;26.23;13.05;;;-2.00;99.90;;;;;;4962058;28;20039;-71
2023/12/02 08:13:37;;;;;;;33.53;14.18;;;-2.00;99.90;;;;;;4965729;28;20069;-71
2023/12/02 08:16:03;;;;;;;27.08;11.30;;;-1.90;99.90;;;;;;4964719;28;20054;-71
2023/12/02 08:18:28;;;;;;;26.05;11.57;;;-1.90;99.90;;;;;;4943699;28;20416;-70
2023/12/02 08:20:54;;;;;;;28.05;13.20;;;-1.90;99.90;;;;;;4948340;28;20038;-71
2023/12/02 08:23:20;;;;;;;28.98;12.30;;;-1.30;99.90;;;;;;4958963;28;20039;-70
2023/12/02 08:25:45;;;;;;;29.65;11.45;;;-1.90;99.90;;;;;;4946061;28;20050;-70
2023/12/02 08:28:11;;;;;;;24.73;10.82;;;-1.90;99.90;;;;;;4960921;28;20382;-71
2023/12/02 08:30:37;;;;;;;32.03;11.52;;;-1.90;99.90;;;;;;4947447;28;20035;-70
2023/12/02 08:33:03;;;;;;;25.02;12.07;;;-1.90;99.90;;;;;;4948241;28;20058;-72
2023/12/02 08:35:29;;;;;;;29.27;12.68;;;-1.90;99.90;;;;;;4950320;28;20039;-71
2023/12/02 08:37:54;;;;;;;29.17;11.55;;;-1.80;99.90;;;;;;4933481;28;20045;-73
2023/12/02 08:40:20;;;;;;;28.05;11.52;;;-1.80;99.90;;;;;;4950161;28;20117;-73
2023/12/02 08:42:46;;;;;;;24.02;11.38;;;-1.80;99.90;;;;;;4950623;28;20121;-73
2023/12/02 08:45:11;;;;;;;34.92;14.20;;;-1.80;99.90;;;;;;4950730;28;20085;-72
2023/12/02 08:47:37;;;;;;;25.25;10.20;;;-1.80;99.90;;;;;;4959456;28;20055;-73
2023/12/02 08:50:03;;;;;;;26.52;12.18;;;-1.70;99.90;;;;;;4950313;28;20035;-72
2023/12/02 08:52:29;;;;;;;32.15;12.48;;;-1.80;99.90;;;;;;4955331;28;20032;-72
2023/12/02 08:54:54;;;;;;;35.42;14.50;;;-1.70;99.90;;;;;;4929476;28;20038;-73
2023/12/02 08:57:20;;;;;;;21.02;9.88;;;-1.70;99.90;;;;;;4946447;28;20102;-73
2023/12/02 08:59:46;;;;;;;29.85;13.57;;;-1.40;99.90;;;;;;4945526;28;20035;-73
2023/12/02 09:02:11;;;;;;;31.98;12.68;;;-1.70;99.90;;;;;;4950366;28;20039;-72
2023/12/02 09:04:37;;;;;;;31.73;13.88;;;-1.60;99.90;;;;;;4969352;28;20047;-74
2023/12/02 09:07:03;;;;;;;26.45;12.63;;;-1.60;99.90;;;;;;4938836;28;20141;-72
2023/12/02 09:09:29;;;;;;;28.38;12.98;;;-1.60;99.90;;;;;;4954877;28;20039;-72
2023/12/02 09:11:55;;;;;;;31.90;14.27;;;-1.60;99.90;;;;;;4956411;28;20101;-71
2023/12/02 09:14:21;;;;;;;37.63;13.50;;;-1.60;99.90;;;;;;4965894;28;20255;-71
2023/12/02 09:16:47;;;;;;;34.92;14.93;;;-1.50;99.90;;;;;;4955848;28;20047;-71
2023/12/02 09:19:50;;;;;;;31.58;12.68;;;-1.50;99.90;;;;;;4966127;28;20058;-71
2023/12/02 09:22:48;;;;;;;26.80;13.90;;;-1.50;99.90;;;;;;4954927;28;20050;-71
2023/12/02 09:25:26;;;;;;;39.70;14.75;;;-1.50;99.90;;;;;;4972614;28;20054;-71
2023/12/02 09:28:02;;;;;;;31.75;14.15;;;-1.50;99.90;;;;;;4936264;28;20039;-71
2023/12/02 09:30:28;;;;;;;31.05;13.50;;;-1.50;99.90;;;;;;4951848;28;20544;-71
2023/12/02 09:32:54;;;;;;;24.25;11.68;;;-1.50;99.90;;;;;;4936558;28;20041;-71
2023/12/02 09:35:19;;;;;;;31.35;14.82;;;-1.50;99.90;;;;;;4937061;28;20038;-71
2023/12/02 09:37:51;;;;;;;31.33;11.80;;;-1.40;99.90;;;;;;4937763;28;20523;-72
2023/12/02 09:40:26;;;;;;;27.17;11.77;;;-1.40;99.90;;;;;;4955275;28;20104;-71
2023/12/02 09:43:13;;;;;;;36.35;14.68;;;-1.40;99.90;;;;;;4938051;28;20495;-72
2023/12/02 09:46:09;;;;;;;33.25;15.20;;;-1.30;99.90;;;;;;4936258;28;21647;-71
2023/12/02 09:49:02;;;;;;;31.35;14.30;;;-1.30;99.90;;;;;;4921675;28;20165;-70
2023/12/02 09:51:53;;;;;;;31.98;14.82;;;-1.10;99.90;;;;;;4937198;28;20055;-70
2023/12/02 09:54:30;;;;;;;33.40;13.90;;;-1.30;99.90;;;;;;4953811;28;20543;-70
2023/12/02 09:57:08;;;;;;;28.98;12.13;;;-1.30;99.90;;;;;;4951279;28;20514;-71
2023/12/02 09:59:52;;;;;;;29.50;12.70;;;-1.20;99.90;;;;;;4955836;28;20081;-71
2023/12/02 10:03:01;;;;;;;27.65;12.20;;;-1.20;99.90;;;;;;4952942;28;20046;-71
2023/12/02 10:05:27;;;;;;;26.50;13.07;;;-1.20;99.90;;;;;;4940373;28;20047;-72
2023/12/02 10:08:05;;;;;;;39.08;15.77;;;-1.20;99.90;;;;;;4937131;28;20104;-73
2023/12/02 10:10:52;;;;;;;34.47;14.02;;;-1.20;99.90;;;;;;4939858;28;20054;-72
2023/12/02 10:14:00;;;;;;;29.77;13.18;;;-1.10;99.90;;;;;;4953507;28;20456;-72
2023/12/02 10:16:30;;;;;;;32.13;13.57;;;-1.10;99.90;;;;;;4952772;28;20078;-72
2023/12/02 10:18:59;;;;;;;37.05;15.60;;;-1.00;99.90;;;;;;4937407;28;20078;-71
2023/12/02 10:21:28;;;;;;;36.97;15.57;;;-1.00;99.90;;;;;;4957681;28;20078;-71
2023/12/02 10:24:01;;;;;;;29.20;14.30;;;-0.90;99.90;;;;;;4958175;28;20101;-71
2023/12/02 10:26:39;;;;;;;31.30;13.73;;;-0.90;99.90;;;;;;4960928;28;20507;-72
2023/12/02 10:29:28;;;;;;;31.90;14.23;;;-0.80;99.90;;;;;;4952042;28;20053;-72
2023/12/02 10:32:28;;;;;;;33.13;13.07;;;-0.80;99.90;;;;;;4951501;28;20034;-72
2023/12/02 10:35:08;;;;;;;31.92;13.82;;;-0.80;99.90;;;;;;4965845;28;20035;-72
2023/12/02 10:37:40;;;;;;;29.08;12.73;;;-0.70;99.90;;;;;;4946305;28;20043;-71
2023/12/02 10:40:10;;;;;;;32.15;14.43;;;-0.70;99.90;;;;;;4966678;28;20039;-71
2023/12/02 10:42:55;;;;;;;34.63;13.52;;;-0.50;99.90;;;;;;4973379;28;20035;-71
2023/12/02 10:45:22;;;;;;;31.25;14.90;;;-0.70;99.90;;;;;;4967447;28;20045;-71
2023/12/02 10:47:51;;;;;;;34.13;14.23;;;-0.70;99.90;;;;;;4964679;28;20055;-71
2023/12/02 10:50:17;;;;;;;33.85;14.35;;;-0.10;99.90;;;;;;4963622;28;20043;-71
2023/12/02 10:53:01;;;;;;;33.55;14.55;;;-0.60;99.90;;;;;;4943102;28;20442;-71
2023/12/02 10:55:31;;;;;;;34.17;15.48;;;-0.60;99.90;;;;;;4966072;28;20131;-71
2023/12/02 10:57:59;;;;;;;38.55;14.88;;;-0.60;99.90;;;;;;4959591;28;20050;-70
2023/12/02 11:00:29;;;;;;;33.60;15.45;;;-0.60;99.90;;;;;;4964736;28;20035;-70
2023/12/02 11:03:05;;;;;;;39.10;16.83;;;-0.50;99.90;;;;;;4966078;28;20122;-72
2023/12/02 11:05:43;;;;;;;37.15;15.43;;;-0.60;99.90;;;;;;4962842;28;20121;-71
2023/12/02 11:08:19;;;;;;;36.97;16.45;;;-0.50;99.90;;;;;;4964029;28;20050;-71
2023/12/02 11:10:51;;;;;;;43.08;15.20;;;-0.40;99.90;;;;;;4976783;28;20059;-71
2023/12/02 11:13:23;;;;;;;23.55;11.82;;;-0.40;99.90;;;;;;4957656;28;20125;-71
2023/12/02 11:16:01;;;;;;;34.03;13.00;;;-0.40;99.90;;;;;;4965121;28;20062;-71
2023/12/02 11:18:58;;;;;;;35.22;14.40;;;-0.30;99.90;;;;;;4950177;28;20102;-72
2023/12/02 11:22:00;;;;;;;34.25;13.45;;;-0.30;99.90;;;;;;4952677;28;20046;-72
2023/12/02 11:25:20;;;;;;;36.88;16.48;;;-0.20;99.90;;;;;;4963417;28;20038;-71
2023/12/02 11:28:09;;;;;;;29.30;14.82;;;-0.20;99.90;;;;;;4941478;28;20054;-71
2023/12/02 11:30:56;;;;;;;43.13;16.02;;;-0.10;99.90;;;;;;4954956;28;20074;-71
2023/12/02 11:33:43;;;;;;;45.72;14.82;;;-0.10;99.90;;;;;;4972406;28;20051;-71
2023/12/02 11:36:53;;;;;;;36.30;15.68;;;-0.10;99.90;;;;;;4964072;28;20199;-72
2023/12/02 11:39:50;;;;;;;41.17;16.60;;;-0.10;99.90;;;;;;4956244;28;20081;-72
2023/12/02 11:42:19;;;;;;;31.52;13.52;;;-0.10;99.90;;;;;;4966572;28;20043;-72
2023/12/02 11:44:55;;;;;;;40.17;17.17;;;-0.10;99.90;;;;;;4982910;28;20042;-73
2023/12/02 11:47:42;;;;;;;29.60;13.18;;;0.00;99.90;;;;;;4957253;28;20058;-72
2023/12/02 11:50:39;;;;;;;36.97;15.55;;;0.00;99.90;;;;;;4957502;28;20074;-71
2023/12/02 11:53:33;;;;;;;38.83;16.95;;;0.00;99.90;;;;;;4963574;28;20035;-72
2023/12/02 11:56:10;;;;;;;41.10;14.85;;;0.10;99.90;;;;;;4948354;28;20122;-75
2023/12/02 11:58:52;;;;;;;40.95;16.42;;;0.10;99.90;;;;;;4964812;28;20049;-71
2023/12/02 12:01:37;;;;;;;35.55;14.82;;;0.00;99.90;;;;;;4963659;28;20280;-72
2023/12/02 12:04:40;;;;;;;34.35;15.55;;;0.10;99.90;;;;;;4964754;28;20053;-72
2023/12/02 12:07:47;;;;;;;29.15;13.52;;;0.10;99.90;;;;;;4940022;28;20049;-71
2023/12/02 12:10:29;;;;;;;36.67;15.75;;;0.10;99.90;;;;;;4943407;28;20054;-71
2023/12/02 12:12:59;;;;;;;39.72;16.30;;;0.10;99.90;;;;;;4945568;28;20123;-70
2023/12/02 12:15:24;;;;;;;34.28;16.38;;;0.10;99.90;;;;;;4944105;28;20126;-70
2023/12/02 12:17:50;;;;;;;33.67;15.52;;;0.10;99.90;;;;;;4941428;28;20567;-71
2023/12/02 12:20:18;;;;;;;42.03;17.33;;;0.10;99.90;;;;;;4942660;28;20069;-71
2023/12/02 12:22:44;;;;;;;37.78;14.98;;;0.20;99.90;;;;;;4957795;28;20117;-71
2023/12/02 12:25:10;;;;;;;39.00;16.92;;;0.30;99.90;;;;;;4943602;28;20421;-71
2023/12/02 12:27:36;;;;;;;42.78;16.13;;;0.50;99.90;;;;;;4959103;28;20185;-70
2023/12/02 12:30:01;;;;;;;43.45;16.88;;;0.40;99.90;;;;;;4943838;28;20144;-71
2023/12/02 12:32:28;;;;;;;37.47;16.58;;;0.40;99.90;;;;;;4957778;28;20046;-71
2023/12/02 12:34:54;;;;;;;40.40;16.73;;;0.40;99.90;;;;;;4957075;28;20043;-71
2023/12/02 12:37:19;;;;;;;40.35;16.55;;;0.50;99.90;;;;;;4927107;28;20046;-71
2023/12/02 12:39:46;;;;;;;35.88;16.00;;;0.60;99.90;;;;;;4943403;28;20451;-71